createdAt,value
2022-11-12T00:00:44.555Z,5.00
2022-11-12T00:03:31.588Z,5.30
2022-11-12T00:06:21.350Z,5.93
2022-11-12T00:09:09.992Z,5.30
2022-11-12T00:11:59.602Z,5.70
2022-11-12T00:14:46.552Z,5.30
2022-11-12T00:17:33.855Z,5.30
2022-11-12T00:20:21.382Z,5.10
2022-11-12T00:23:08.863Z,5.13
2022-11-12T00:26:03.895Z,7.43
2022-11-12T00:28:50.895Z,5.33
2022-11-12T00:31:38.269Z,5.03
2022-11-12T00:34:25.708Z,6.30
2022-11-12T00:37:14.914Z,4.90
2022-11-12T00:40:01.942Z,5.07
2022-11-12T00:42:51.563Z,4.93
2022-11-12T00:45:40.718Z,6.03
2022-11-12T00:48:28.530Z,4.43
2022-11-12T00:51:15.940Z,4.30
2022-11-12T00:54:03.223Z,4.50
2022-11-12T00:56:50.210Z,4.57
2022-11-12T00:59:39.001Z,5.67
2022-11-12T01:02:26.057Z,5.10
2022-11-12T01:05:13.411Z,5.47
2022-11-12T01:08:00.834Z,4.80
2022-11-12T01:10:48.300Z,4.97
2022-11-12T01:13:38.866Z,4.77
2022-11-12T01:16:33.562Z,4.10
2022-11-12T01:19:20.984Z,4.47
2022-11-12T01:22:08.258Z,6.03
2022-11-12T01:24:55.781Z,4.27
2022-11-12T01:27:42.727Z,4.30
2022-11-12T01:30:30.201Z,6.10
2022-11-12T01:33:19.000Z,5.07
2022-11-12T01:36:09.201Z,4.30
2022-11-12T01:38:56.882Z,4.37
2022-11-12T01:41:45.202Z,4.33
2022-11-12T01:44:33.106Z,5.30
2022-11-12T01:47:23.132Z,4.37
2022-11-12T01:50:23.096Z,5.97
2022-11-12T01:53:12.745Z,4.40
2022-11-12T01:56:01.195Z,4.70
2022-11-12T01:58:50.624Z,4.63
2022-11-12T02:01:37.933Z,4.23
2022-11-12T02:04:26.960Z,5.70
2022-11-12T02:07:15.885Z,5.23
2022-11-12T02:10:04.785Z,4.13
2022-11-12T02:13:11.243Z,5.20
2022-11-12T02:15:59.205Z,4.87
2022-11-12T02:18:46.499Z,5.47
2022-11-12T02:21:36.058Z,5.20
2022-11-12T02:24:35.379Z,5.00
2022-11-12T02:27:23.011Z,5.00
2022-11-12T02:30:11.072Z,4.80
2022-11-12T02:32:58.296Z,5.43
2022-11-12T02:35:45.682Z,5.03
2022-11-12T02:38:34.503Z,6.47
2022-11-12T02:41:21.765Z,5.60
2022-11-12T02:44:10.965Z,5.87
2022-11-12T02:46:58.076Z,5.53
2022-11-12T02:49:45.865Z,5.93
2022-11-12T02:52:33.146Z,4.50
2022-11-12T02:55:21.742Z,5.17
2022-11-12T02:58:09.000Z,4.37
2022-11-12T03:00:56.924Z,4.50
2022-11-12T03:03:44.302Z,4.93
2022-11-12T03:06:31.705Z,4.33
2022-11-12T03:09:19.195Z,4.20
2022-11-12T03:12:07.805Z,4.47
2022-11-12T03:14:56.794Z,4.30
2022-11-12T03:17:45.855Z,4.37
2022-11-12T03:20:34.857Z,4.10
2022-11-12T03:23:21.864Z,4.50
2022-11-12T03:26:09.161Z,4.67
2022-11-12T03:28:57.865Z,4.40
2022-11-12T03:31:45.225Z,4.73
2022-11-12T03:34:32.338Z,5.23
2022-11-12T03:37:19.631Z,4.90
2022-11-12T03:40:08.256Z,5.13
2022-11-12T03:42:55.615Z,6.10
2022-11-12T03:45:44.159Z,6.80
2022-11-12T03:48:31.275Z,11.43
2022-11-12T03:51:19.195Z,11.97
2022-11-12T03:54:06.443Z,10.70
2022-11-12T03:56:53.311Z,8.93
2022-11-12T03:59:40.564Z,6.80
2022-11-12T04:02:47.800Z,6.57
2022-11-12T04:05:52.280Z,4.83
2022-11-12T04:08:39.335Z,5.10
2022-11-12T04:11:26.607Z,4.20
2022-11-12T04:14:12.758Z,4.23
2022-11-12T04:17:16.904Z,7.03
2022-11-12T04:20:23.707Z,3.80
2022-11-12T04:23:11.048Z,3.87
2022-11-12T04:26:15.761Z,4.37
2022-11-12T04:29:20.068Z,3.90
2022-11-12T04:32:08.366Z,3.20
2022-11-12T04:34:55.404Z,4.13
2022-11-12T04:37:47.187Z,3.10
2022-11-12T04:40:52.411Z,3.10
2022-11-12T04:44:17.904Z,4.47
2022-11-12T04:47:05.445Z,6.87
2022-11-12T04:49:54.815Z,10.93
2022-11-12T04:52:43.674Z,5.83
2022-11-12T04:55:30.704Z,4.93
2022-11-12T04:58:18.204Z,5.57
2022-11-12T05:01:24.236Z,4.43
2022-11-12T05:04:11.374Z,4.10
2022-11-12T05:07:00.621Z,4.10
2022-11-12T05:09:49.574Z,5.60
2022-11-12T05:12:39.035Z,3.67
2022-11-12T05:15:26.543Z,6.33
2022-11-12T05:18:14.195Z,4.10
2022-11-12T05:21:22.214Z,7.13
2022-11-12T05:24:17.831Z,3.50
2022-11-12T05:27:20.806Z,3.20
2022-11-12T05:30:09.586Z,3.00
2022-11-12T05:32:56.744Z,3.30
2022-11-12T05:35:44.269Z,3.10
2022-11-12T05:38:31.414Z,2.70
2022-11-12T05:41:20.244Z,2.60
2022-11-12T05:44:09.094Z,3.00
2022-11-12T05:46:56.504Z,3.37
2022-11-12T05:49:45.898Z,3.20
2022-11-12T05:52:32.966Z,4.57
2022-11-12T05:55:19.644Z,3.80
2022-11-12T05:58:07.295Z,5.83
2022-11-12T06:00:56.006Z,3.10
2022-11-12T06:04:01.688Z,3.90
2022-11-12T06:06:49.038Z,3.87
2022-11-12T06:09:36.417Z,3.90
2022-11-12T06:12:25.818Z,3.47
2022-11-12T06:15:13.038Z,3.50
2022-11-12T06:18:01.875Z,3.80
2022-11-12T06:21:09.333Z,3.77
2022-11-12T06:23:59.360Z,3.40
2022-11-12T06:26:48.502Z,3.97
2022-11-12T06:29:35.824Z,4.13
2022-11-12T06:32:22.775Z,4.40
2022-11-12T06:35:11.795Z,3.60
2022-11-12T06:38:17.644Z,4.00
2022-11-12T06:41:05.118Z,4.33
2022-11-12T06:43:52.268Z,3.13
2022-11-12T06:46:39.337Z,5.00
2022-11-12T06:49:26.441Z,3.57
2022-11-12T06:52:16.944Z,3.50
2022-11-12T06:55:04.379Z,3.93
2022-11-12T06:57:53.919Z,3.37
2022-11-12T07:00:41.268Z,4.43
2022-11-12T07:03:28.753Z,24.40
2022-11-12T07:06:20.298Z,18.10
2022-11-12T07:09:09.052Z,17.93
2022-11-12T07:11:56.421Z,14.67
2022-11-12T07:14:43.890Z,16.30
2022-11-12T07:17:51.716Z,15.30
2022-11-12T07:20:39.014Z,11.60
2022-11-12T07:23:26.486Z,7.77
2022-11-12T07:26:17.518Z,7.03
2022-11-12T07:29:04.582Z,7.70
2022-11-12T07:31:52.043Z,9.63
2022-11-12T07:34:39.033Z,6.50
2022-11-12T07:37:44.982Z,5.70
2022-11-12T07:40:32.218Z,6.53
2022-11-12T07:43:21.250Z,4.97
2022-11-12T07:46:11.483Z,5.73
2022-11-12T07:49:01.151Z,6.00
2022-11-12T07:51:48.480Z,6.00
2022-11-12T07:54:35.634Z,9.40
2022-11-12T07:57:41.505Z,7.63
2022-11-12T08:00:30.126Z,5.27
2022-11-12T08:03:36.285Z,6.37
2022-11-12T08:06:23.917Z,6.30
2022-11-12T08:09:11.894Z,8.33
2022-11-12T08:12:01.158Z,5.47
2022-11-12T08:14:48.347Z,8.17
2022-11-12T08:17:41.269Z,9.53
2022-11-12T08:20:28.454Z,6.00
2022-11-12T08:23:15.994Z,5.10
2022-11-12T08:26:04.465Z,6.43
2022-11-12T08:28:51.704Z,4.73
2022-11-12T08:31:38.736Z,6.80
2022-11-12T08:34:29.296Z,5.60
2022-11-12T08:37:16.712Z,4.33
2022-11-12T08:40:04.141Z,6.40
2022-11-12T08:42:58.621Z,6.60
2022-11-12T08:45:46.200Z,5.73
2022-11-12T08:48:34.589Z,6.40
2022-11-12T08:51:23.480Z,7.23
2022-11-12T08:54:10.611Z,5.30
2022-11-12T08:56:58.141Z,7.97
2022-11-12T08:59:45.577Z,6.50
2022-11-12T09:02:32.690Z,4.27
2022-11-12T09:05:20.111Z,3.77
2022-11-12T09:08:10.490Z,3.60
2022-11-12T09:10:59.679Z,4.87
2022-11-12T09:13:49.564Z,5.40
2022-11-12T09:16:36.958Z,3.47
2022-11-12T09:19:24.040Z,3.33
2022-11-12T09:22:11.483Z,4.00
2022-11-12T09:25:00.509Z,3.23
2022-11-12T09:28:06.491Z,4.30
2022-11-12T09:30:55.069Z,3.63
2022-11-12T09:34:01.160Z,3.07
2022-11-12T09:36:48.551Z,5.47
2022-11-12T09:39:35.921Z,3.13
2022-11-12T09:42:43.510Z,3.53
2022-11-12T09:45:32.790Z,3.73
2022-11-12T09:48:42.372Z,4.83
2022-11-12T09:51:33.589Z,6.43
2022-11-12T09:54:26.591Z,4.40
2022-11-12T09:57:51.220Z,2.93
2022-11-12T10:00:45.231Z,3.03
2022-11-12T10:03:40.121Z,6.17
2022-11-12T10:06:50.085Z,2.83
2022-11-12T10:09:45.870Z,2.50
2022-11-12T10:12:47.121Z,4.40
2022-11-12T10:16:02.530Z,3.30
2022-11-12T10:19:04.284Z,6.82
2022-11-12T10:21:58.766Z,3.80
2022-11-12T10:24:46.743Z,3.47
2022-11-12T10:27:41.536Z,4.95
2022-11-12T10:30:28.796Z,5.82
2022-11-12T10:33:36.403Z,7.47
2022-11-12T10:36:30.160Z,8.38
2022-11-12T10:39:35.130Z,11.10
2022-11-12T10:42:23.930Z,11.10
2022-11-12T10:45:22.209Z,6.93
2022-11-12T10:48:29.146Z,6.88
2022-11-12T10:51:29.112Z,9.60
2022-11-12T10:54:31.290Z,7.95
2022-11-12T10:57:23.286Z,8.65
2022-11-12T11:00:19.143Z,7.38
2022-11-12T11:03:16.705Z,7.22
2022-11-12T11:06:06.265Z,6.72
2022-11-12T11:09:09.621Z,6.03
2022-11-12T11:11:56.762Z,11.70
2022-11-12T11:14:44.772Z,7.70
2022-11-12T11:17:34.107Z,12.65
2022-11-12T11:20:25.112Z,15.00
2022-11-12T11:23:21.509Z,9.27
2022-11-12T11:26:26.778Z,11.00
2022-11-12T11:29:45.867Z,10.15
2022-11-12T11:32:56.250Z,8.48
2022-11-12T11:36:06.320Z,9.90
2022-11-12T11:39:03.725Z,7.55
2022-11-12T11:42:06.722Z,9.80
2022-11-12T11:45:01.213Z,6.63
2022-11-12T11:48:01.742Z,7.20
2022-11-12T11:50:58.152Z,7.95
2022-11-12T11:53:53.555Z,7.15
2022-11-12T11:56:44.428Z,8.63
2022-11-12T11:59:58.310Z,8.18
2022-11-12T12:03:17.945Z,8.38
2022-11-12T12:06:19.966Z,8.50
2022-11-12T12:09:24.996Z,7.10
2022-11-12T12:12:23.984Z,7.60
2022-11-12T12:15:43.373Z,5.28
2022-11-12T12:18:41.302Z,7.22
2022-11-12T12:21:34.367Z,7.97
2022-11-12T12:24:46.913Z,7.20
2022-11-12T12:27:39.244Z,7.72
2022-11-12T12:30:45.136Z,8.93
2022-11-12T12:33:39.213Z,7.47
2022-11-12T12:36:46.964Z,8.45
2022-11-12T12:39:47.998Z,7.68
2022-11-12T12:42:41.419Z,8.32
2022-11-12T12:45:37.677Z,10.55
2022-11-12T12:48:30.263Z,9.18
2022-11-12T12:51:19.674Z,9.02
2022-11-12T12:54:27.264Z,9.80
2022-11-12T12:57:33.209Z,9.23
2022-11-12T13:00:33.904Z,9.48
2022-11-12T13:03:51.019Z,8.93
2022-11-12T13:06:58.069Z,8.85
2022-11-12T13:10:18.443Z,8.32
2022-11-12T13:13:08.004Z,9.27
2022-11-12T13:15:56.457Z,8.68
2022-11-12T13:19:02.582Z,11.35
2022-11-12T13:22:30.487Z,10.35
2022-11-12T13:25:30.275Z,7.55
2022-11-12T13:28:17.682Z,8.25
2022-11-12T13:31:06.003Z,9.43
2022-11-12T13:33:53.741Z,7.38
2022-11-12T13:36:41.597Z,7.93
2022-11-12T13:39:29.677Z,8.88
2022-11-12T13:42:37.516Z,10.88
2022-11-12T13:45:27.605Z,10.23
2022-11-12T13:48:19.566Z,9.38
2022-11-12T13:51:14.410Z,8.35
2022-11-12T13:54:01.956Z,7.93
2022-11-12T13:56:49.446Z,8.57
2022-11-12T13:59:38.212Z,11.00
2022-11-12T14:02:28.456Z,7.88
2022-11-12T14:05:17.992Z,8.13
2022-11-12T14:08:29.431Z,8.35
2022-11-12T14:11:46.733Z,8.88
2022-11-12T14:14:51.264Z,7.53
2022-11-12T14:17:45.572Z,7.97
2022-11-12T14:20:37.202Z,11.75
2022-11-12T14:23:26.251Z,9.30
2022-11-12T14:26:15.089Z,7.63
2022-11-12T14:29:02.373Z,8.75
2022-11-12T14:32:03.010Z,7.85
2022-11-12T14:34:50.194Z,8.77
2022-11-12T14:37:43.410Z,9.18
2022-11-12T14:40:34.248Z,11.43
2022-11-12T14:43:27.930Z,10.55
2022-11-12T14:46:27.060Z,11.38
2022-11-12T14:49:21.560Z,10.32
2022-11-12T14:52:31.459Z,13.32
2022-11-12T14:55:22.339Z,11.65
2022-11-12T14:58:33.233Z,11.52
2022-11-12T15:02:08.897Z,12.20
2022-11-12T15:04:40.016Z,17.00
2022-11-12T15:07:29.087Z,13.88
2022-11-12T15:10:39.050Z,16.05
2022-11-12T15:13:28.676Z,14.27
2022-11-12T15:16:24.471Z,16.35
2022-11-12T15:19:21.892Z,19.55
2022-11-12T15:22:23.077Z,28.23
2022-11-12T15:25:38.471Z,20.37
2022-11-12T15:28:27.630Z,21.00
2022-11-12T15:31:20.181Z,20.97
2022-11-12T15:34:27.971Z,22.10
2022-11-12T15:37:26.851Z,26.10
2022-11-12T15:40:18.868Z,22.80
2022-11-12T15:43:13.693Z,24.90
2022-11-12T15:46:01.413Z,21.40
2022-11-12T15:48:54.564Z,22.27
2022-11-12T15:51:43.429Z,23.27
2022-11-12T15:54:34.613Z,21.57
2022-11-12T15:57:29.258Z,20.67
2022-11-12T16:00:35.650Z,24.03
2022-11-12T16:03:24.510Z,22.67
2022-11-12T16:06:13.470Z,23.13
2022-11-12T16:09:00.819Z,24.60
2022-11-12T16:11:51.278Z,31.03
2022-11-12T16:14:38.540Z,33.40
2022-11-12T16:17:25.951Z,29.00
2022-11-12T16:20:18.768Z,30.30
2022-11-12T16:23:06.219Z,29.83
2022-11-12T16:25:53.590Z,25.63
2022-11-12T16:28:42.176Z,27.07
2022-11-12T16:31:29.748Z,24.37
2022-11-12T16:34:17.090Z,29.83
2022-11-12T16:37:04.396Z,24.70
2022-11-12T16:39:51.768Z,25.30
2022-11-12T16:42:45.606Z,32.57
2022-11-12T16:45:37.943Z,30.33
2022-11-12T16:48:25.105Z,39.37
2022-11-12T16:51:18.831Z,37.23
2022-11-12T16:54:06.936Z,36.47
2022-11-12T16:56:55.299Z,51.77
2022-11-12T16:59:42.723Z,41.40
2022-11-12T17:02:32.560Z,39.00
2022-11-12T17:05:39.336Z,38.73
2022-11-12T17:08:33.716Z,33.03
2022-11-12T17:11:21.931Z,31.47
2022-11-12T17:14:09.134Z,28.37
2022-11-12T17:16:56.470Z,27.33
2022-11-12T17:19:45.178Z,34.10
2022-11-12T17:22:32.698Z,30.67
2022-11-12T17:25:20.214Z,28.50
2022-11-12T17:28:07.739Z,27.63
2022-11-12T17:31:04.387Z,26.90
2022-11-12T17:33:53.752Z,30.47
2022-11-12T17:36:43.950Z,32.57
2022-11-12T17:39:34.852Z,32.20
2022-11-12T17:42:22.045Z,31.00
2022-11-12T17:45:10.631Z,40.47
2022-11-12T17:47:58.135Z,33.37
2022-11-12T17:50:45.405Z,28.80
2022-11-12T17:53:34.148Z,25.13
2022-11-12T17:56:40.628Z,24.33
2022-11-12T17:59:28.152Z,33.00
2022-11-12T18:02:32.939Z,28.47
2022-11-12T18:05:20.407Z,23.13
2022-11-12T18:08:07.636Z,37.60
2022-11-12T18:10:56.919Z,31.33
2022-11-12T18:14:01.694Z,28.77
2022-11-12T18:16:49.409Z,56.80
2022-11-12T18:19:36.790Z,48.10
2022-11-12T18:22:24.090Z,41.87
2022-11-12T18:25:11.540Z,25.07
2022-11-12T18:28:00.532Z,26.10
2022-11-12T18:30:48.006Z,28.43
2022-11-12T18:33:53.077Z,28.37
2022-11-12T18:36:40.829Z,27.37
2022-11-12T18:39:28.993Z,27.50
2022-11-12T18:42:16.194Z,26.70
2022-11-12T18:45:05.104Z,38.57
2022-11-12T18:47:52.813Z,42.93
2022-11-12T18:50:40.143Z,37.67
2022-11-12T18:53:28.156Z,44.73
2022-11-12T18:56:17.474Z,38.73
2022-11-12T18:59:21.923Z,37.73
2022-11-12T19:02:12.412Z,44.70
2022-11-12T19:04:59.859Z,46.83
2022-11-12T19:07:47.375Z,38.13
2022-11-12T19:10:34.841Z,33.10
2022-11-12T19:13:22.320Z,29.80
2022-11-12T19:16:11.951Z,35.27
2022-11-12T19:19:00.841Z,35.00
2022-11-12T19:21:49.079Z,22.87
2022-11-12T19:24:36.599Z,38.43
2022-11-12T19:27:24.211Z,22.90
2022-11-12T19:30:12.800Z,23.40
2022-11-12T19:33:17.331Z,21.27
2022-11-12T19:36:09.799Z,21.60
2022-11-12T19:38:58.522Z,24.40
2022-11-12T19:41:46.022Z,26.70
2022-11-12T19:44:33.252Z,31.00
2022-11-12T19:47:20.493Z,30.00
2022-11-12T19:50:10.013Z,27.67
2022-11-12T19:52:59.054Z,29.13
2022-11-12T19:56:03.991Z,29.27
2022-11-12T19:58:57.871Z,26.20
2022-11-12T20:01:45.392Z,25.63
2022-11-12T20:04:33.383Z,24.60
2022-11-12T20:07:20.802Z,23.83
2022-11-12T20:10:12.869Z,25.53
2022-11-12T20:13:17.849Z,20.93
2022-11-12T20:16:08.860Z,19.13
2022-11-12T20:18:58.188Z,19.50
2022-11-12T20:21:45.619Z,18.30
2022-11-12T20:24:32.811Z,18.90
2022-11-12T20:27:21.621Z,23.83
2022-11-12T20:30:10.760Z,24.77
2022-11-12T20:32:58.167Z,24.83
2022-11-12T20:35:45.610Z,22.13
2022-11-12T20:38:33.179Z,17.23
2022-11-12T20:41:22.558Z,15.40
2022-11-12T20:44:11.628Z,14.33
2022-11-12T20:46:59.080Z,13.50
2022-11-12T20:49:46.509Z,13.87
2022-11-12T20:52:33.950Z,12.93
2022-11-12T20:55:21.210Z,13.30
2022-11-12T20:58:08.459Z,12.93
2022-11-12T21:00:57.392Z,14.20
2022-11-12T21:03:45.841Z,10.70
2022-11-12T21:06:33.347Z,11.87
2022-11-12T21:09:20.627Z,12.30
2022-11-12T21:12:08.517Z,13.50
2022-11-12T21:14:56.117Z,15.77
2022-11-12T21:17:44.996Z,13.27
2022-11-12T21:20:32.607Z,12.70
2022-11-12T21:23:20.726Z,11.13
2022-11-12T21:26:13.027Z,10.30
2022-11-12T21:29:00.708Z,9.67
2022-11-12T21:31:49.960Z,9.00
2022-11-12T21:34:38.710Z,10.27
2022-11-12T21:37:26.350Z,8.00
2022-11-12T21:40:14.720Z,6.77
2022-11-12T21:43:02.387Z,8.70
2022-11-12T21:45:49.844Z,7.00
2022-11-12T21:48:55.564Z,7.33
2022-11-12T21:51:44.536Z,5.90
2022-11-12T21:54:32.094Z,9.43
2022-11-12T21:57:19.467Z,6.87
2022-11-12T22:00:39.743Z,8.17
2022-11-12T22:03:15.005Z,6.50
2022-11-12T22:06:02.655Z,8.03
2022-11-12T22:08:53.680Z,6.70
2022-11-12T22:11:41.359Z,6.90
2022-11-12T22:14:29.047Z,6.67
2022-11-12T22:17:16.720Z,6.53
2022-11-12T22:20:04.233Z,6.40
2022-11-12T22:22:53.820Z,6.17
2022-11-12T22:25:42.829Z,5.40
2022-11-12T22:28:47.239Z,5.93
2022-11-12T22:31:35.028Z,6.20
2022-11-12T22:34:22.635Z,6.00
2022-11-12T22:37:10.051Z,6.40
2022-11-12T22:39:57.584Z,6.87
2022-11-12T22:42:46.387Z,7.03
2022-11-12T22:45:35.854Z,5.10
2022-11-12T22:48:23.115Z,5.87
2022-11-12T22:51:14.218Z,4.67
2022-11-12T22:54:03.525Z,5.23
2022-11-12T22:56:50.881Z,4.70
2022-11-12T22:59:39.664Z,5.20
2022-11-12T23:02:27.154Z,4.57
2022-11-12T23:05:14.311Z,4.60
2022-11-12T23:08:01.614Z,4.30
2022-11-12T23:10:48.914Z,4.00
2022-11-12T23:13:36.882Z,4.27
2022-11-12T23:16:27.568Z,4.93
2022-11-12T23:19:15.044Z,4.10
2022-11-12T23:22:07.558Z,4.17
2022-11-12T23:24:55.032Z,5.17
2022-11-12T23:27:42.351Z,4.17
2022-11-12T23:30:29.601Z,4.50
2022-11-12T23:33:18.212Z,4.33
2022-11-12T23:36:07.255Z,4.17
2022-11-12T23:38:55.241Z,4.37
2022-11-12T23:41:42.557Z,4.53
2022-11-12T23:44:29.845Z,6.27
2022-11-12T23:47:17.055Z,4.77
2022-11-12T23:50:06.739Z,5.17
2022-11-12T23:53:12.853Z,5.93
2022-11-12T23:56:00.473Z,5.23
2022-11-12T23:58:48.174Z,5.10
